sensor_id;sensor_type;location;lat;lon;timestamp;P1;durP1;ratioP1;P2;durP2;ratioP2
52468;SDS011;38381;53.688;10.776;2023-04-01T00:02:42;8.37;;;7.57;;
52468;SDS011;38381;53.688;10.776;2023-04-01T00:07:43;7.65;;;6.85;;
52468;SDS011;38381;53.688;10.776;2023-04-01T00:12:44;8.35;;;7.28;;
52468;SDS011;38381;53.688;10.776;2023-04-01T00:17:44;7.82;;;7.03;;
52468;SDS011;38381;53.688;10.776;2023-04-01T00:22:44;10.33;;;8.53;;
52468;SDS011;38381;53.688;10.776;2023-04-01T00:27:45;9.75;;;7.88;;
52468;SDS011;38381;53.688;10.776;2023-04-01T00:32:45;8.10;;;6.97;;
52468;SDS011;38381;53.688;10.776;2023-04-01T00:37:46;9.25;;;8.32;;
52468;SDS011;38381;53.688;10.776;2023-04-01T00:42:47;10.32;;;7.43;;
52468;SDS011;38381;53.688;10.776;2023-04-01T00:47:47;10.00;;;7.83;;
52468;SDS011;38381;53.688;10.776;2023-04-01T00:52:48;9.83;;;7.77;;
52468;SDS011;38381;53.688;10.776;2023-04-01T00:57:48;9.38;;;8.23;;
52468;SDS011;38381;53.688;10.776;2023-04-01T01:02:51;10.13;;;7.00;;
52468;SDS011;38381;53.688;10.776;2023-04-01T01:23:42;9.48;;;8.48;;
52468;SDS011;38381;53.688;10.776;2023-04-01T01:34:54;9.43;;;7.97;;
52468;SDS011;38381;53.688;10.776;2023-04-01T01:39:48;13.45;;;9.18;;
52468;SDS011;38381;53.688;10.776;2023-04-01T01:44:53;9.27;;;7.68;;
52468;SDS011;38381;53.688;10.776;2023-04-01T01:49:57;10.55;;;7.55;;
52468;SDS011;38381;53.688;10.776;2023-04-01T01:54:58;9.50;;;7.88;;
52468;SDS011;38381;53.688;10.776;2023-04-01T02:00:00;9.38;;;7.35;;
52468;SDS011;38381;53.688;10.776;2023-04-01T02:05:09;9.68;;;8.02;;
52468;SDS011;38381;53.688;10.776;2023-04-01T02:10:15;10.32;;;8.60;;
52468;SDS011;38381;53.688;10.776;2023-04-01T02:15:17;10.18;;;9.18;;
52468;SDS011;38381;53.688;10.776;2023-04-01T02:20:21;8.27;;;7.47;;
52468;SDS011;38381;53.688;10.776;2023-04-01T02:25:24;8.50;;;7.63;;
52468;SDS011;38381;53.688;10.776;2023-04-01T02:30:29;8.85;;;7.85;;
52468;SDS011;38381;53.688;10.776;2023-04-01T02:35:32;8.43;;;7.50;;
52468;SDS011;38381;53.688;10.776;2023-04-01T02:40:57;8.90;;;7.65;;
52468;SDS011;38381;53.688;10.776;2023-04-01T02:45:57;11.20;;;8.60;;
52468;SDS011;38381;53.688;10.776;2023-04-01T02:50:58;9.80;;;8.82;;
52468;SDS011;38381;53.688;10.776;2023-04-01T02:55:58;10.25;;;9.18;;
52468;SDS011;38381;53.688;10.776;2023-04-01T03:00:59;9.60;;;8.52;;
52468;SDS011;38381;53.688;10.776;2023-04-01T03:06:04;4.28;;;3.88;;
52468;SDS011;38381;53.688;10.776;2023-04-01T03:11:09;3.97;;;3.33;;
52468;SDS011;38381;53.688;10.776;2023-04-01T03:16:10;3.67;;;3.15;;
52468;SDS011;38381;53.688;10.776;2023-04-01T03:21:15;4.38;;;3.53;;
52468;SDS011;38381;53.688;10.776;2023-04-01T03:26:17;3.50;;;3.20;;
52468;SDS011;38381;53.688;10.776;2023-04-01T03:31:18;3.88;;;3.42;;
52468;SDS011;38381;53.688;10.776;2023-04-01T03:36:18;3.42;;;2.90;;
52468;SDS011;38381;53.688;10.776;2023-04-01T03:41:19;4.72;;;3.22;;
52468;SDS011;38381;53.688;10.776;2023-04-01T03:46:20;5.03;;;3.10;;
52468;SDS011;38381;53.688;10.776;2023-04-01T03:51:20;2.92;;;2.60;;
52468;SDS011;38381;53.688;10.776;2023-04-01T03:56:21;3.65;;;2.30;;
52468;SDS011;38381;53.688;10.776;2023-04-01T04:01:21;3.53;;;2.70;;
52468;SDS011;38381;53.688;10.776;2023-04-01T04:06:22;2.83;;;2.58;;
52468;SDS011;38381;53.688;10.776;2023-04-01T04:11:24;2.60;;;2.10;;
52468;SDS011;38381;53.688;10.776;2023-04-01T04:16:24;3.08;;;2.53;;
52468;SDS011;38381;53.688;10.776;2023-04-01T04:21:25;2.60;;;2.40;;
52468;SDS011;38381;53.688;10.776;2023-04-01T04:26:25;3.45;;;2.53;;
52468;SDS011;38381;53.688;10.776;2023-04-01T04:31:26;3.30;;;2.65;;
52468;SDS011;38381;53.688;10.776;2023-04-01T04:36:27;3.20;;;2.90;;
52468;SDS011;38381;53.688;10.776;2023-04-01T04:41:27;3.10;;;2.78;;
52468;SDS011;38381;53.688;10.776;2023-04-01T04:46:28;4.40;;;2.92;;
52468;SDS011;38381;53.688;10.776;2023-04-01T04:51:28;3.17;;;2.70;;
52468;SDS011;38381;53.688;10.776;2023-04-01T04:56:29;2.58;;;2.38;;
52468;SDS011;38381;53.688;10.776;2023-04-01T05:01:30;2.60;;;2.10;;
52468;SDS011;38381;53.688;10.776;2023-04-01T05:06:31;2.50;;;2.30;;
52468;SDS011;38381;53.688;10.776;2023-04-01T05:11:32;2.50;;;2.30;;
52468;SDS011;38381;53.688;10.776;2023-04-01T05:16:32;2.20;;;1.90;;
52468;SDS011;38381;53.688;10.776;2023-04-01T05:21:32;2.08;;;1.88;;
52468;SDS011;38381;53.688;10.776;2023-04-01T05:26:33;2.50;;;2.30;;
52468;SDS011;38381;53.688;10.776;2023-04-01T05:31:33;3.77;;;2.67;;
52468;SDS011;38381;53.688;10.776;2023-04-01T05:36:33;2.10;;;1.85;;
52468;SDS011;38381;53.688;10.776;2023-04-01T05:41:36;2.70;;;2.07;;
52468;SDS011;38381;53.688;10.776;2023-04-01T05:46:37;2.95;;;2.45;;
52468;SDS011;38381;53.688;10.776;2023-04-01T05:51:37;3.80;;;2.70;;
52468;SDS011;38381;53.688;10.776;2023-04-01T05:56:38;4.03;;;2.72;;
52468;SDS011;38381;53.688;10.776;2023-04-01T06:01:38;2.75;;;2.47;;
52468;SDS011;38381;53.688;10.776;2023-04-01T06:06:39;3.97;;;2.53;;
52468;SDS011;38381;53.688;10.776;2023-04-01T06:17:30;2.10;;;1.90;;
52468;SDS011;38381;53.688;10.776;2023-04-01T06:22:47;2.08;;;1.88;;
52468;SDS011;38381;53.688;10.776;2023-04-01T06:49:59;2.15;;;1.95;;
52468;SDS011;38381;53.688;10.776;2023-04-01T06:55:03;2.50;;;2.00;;
52468;SDS011;38381;53.688;10.776;2023-04-01T07:00:31;2.28;;;2.00;;
52468;SDS011;38381;53.688;10.776;2023-04-01T07:05:37;2.00;;;1.77;;
52468;SDS011;38381;53.688;10.776;2023-04-01T07:10:43;1.70;;;1.60;;
52468;SDS011;38381;53.688;10.776;2023-04-01T07:16:31;1.80;;;1.52;;
52468;SDS011;38381;53.688;10.776;2023-04-01T07:21:31;2.55;;;2.03;;
52468;SDS011;38381;53.688;10.776;2023-04-01T07:26:36;2.03;;;1.90;;
52468;SDS011;38381;53.688;10.776;2023-04-01T07:37:16;2.13;;;1.92;;
52468;SDS011;38381;53.688;10.776;2023-04-01T07:47:53;2.45;;;1.95;;
52468;SDS011;38381;53.688;10.776;2023-04-01T07:58:40;2.67;;;1.90;;
52468;SDS011;38381;53.688;10.776;2023-04-01T08:19:22;3.63;;;2.72;;
52468;SDS011;38381;53.688;10.776;2023-04-01T08:25:05;2.00;;;1.80;;
52468;SDS011;38381;53.688;10.776;2023-04-01T08:30:09;1.67;;;1.58;;
52468;SDS011;38381;53.688;10.776;2023-04-01T08:35:24;2.20;;;1.88;;
52468;SDS011;38381;53.688;10.776;2023-04-01T08:45:44;2.47;;;1.88;;
52468;SDS011;38381;53.688;10.776;2023-04-01T08:56:34;2.38;;;2.00;;
52468;SDS011;38381;53.688;10.776;2023-04-01T09:28:33;1.60;;;1.50;;
52468;SDS011;38381;53.688;10.776;2023-04-01T10:45:24;3.90;;;3.50;;
52468;SDS011;38381;53.688;10.776;2023-04-01T11:28:12;4.40;;;4.00;;
52468;SDS011;38381;53.688;10.776;2023-04-01T11:33:22;5.68;;;3.75;;
52468;SDS011;38381;53.688;10.776;2023-04-01T11:38:31;3.70;;;3.38;;
52468;SDS011;38381;53.688;10.776;2023-04-01T11:43:46;5.57;;;3.60;;
52468;SDS011;38381;53.688;10.776;2023-04-01T11:54:46;4.72;;;4.05;;
52468;SDS011;38381;53.688;10.776;2023-04-01T12:05:10;4.35;;;3.80;;
52468;SDS011;38381;53.688;10.776;2023-04-01T12:10:20;3.45;;;3.15;;
52468;SDS011;38381;53.688;10.776;2023-04-01T12:15:30;3.63;;;3.25;;
52468;SDS011;38381;53.688;10.776;2023-04-01T12:26:19;5.32;;;3.65;;
52468;SDS011;38381;53.688;10.776;2023-04-01T12:47:44;6.43;;;4.53;;
52468;SDS011;38381;53.688;10.776;2023-04-01T13:03:53;5.13;;;3.80;;
52468;SDS011;38381;53.688;10.776;2023-04-01T13:09:00;5.05;;;4.22;;
52468;SDS011;38381;53.688;10.776;2023-04-01T13:14:13;5.65;;;4.70;;
52468;SDS011;38381;53.688;10.776;2023-04-01T13:24:51;7.57;;;4.93;;
52468;SDS011;38381;53.688;10.776;2023-04-01T13:35:40;6.30;;;5.53;;
52468;SDS011;38381;53.688;10.776;2023-04-01T13:46:31;5.55;;;5.03;;
52468;SDS011;38381;53.688;10.776;2023-04-01T13:51:53;6.97;;;4.60;;
52468;SDS011;38381;53.688;10.776;2023-04-01T13:57:16;7.60;;;4.40;;
52468;SDS011;38381;53.688;10.776;2023-04-01T14:07:55;6.13;;;4.40;;
52468;SDS011;38381;53.688;10.776;2023-04-01T14:13:18;6.00;;;4.57;;
52468;SDS011;38381;53.688;10.776;2023-04-01T14:18:47;6.78;;;5.85;;
52468;SDS011;38381;53.688;10.776;2023-04-01T14:24:00;8.13;;;5.68;;
52468;SDS011;38381;53.688;10.776;2023-04-01T14:39:49;6.32;;;5.32;;
52468;SDS011;38381;53.688;10.776;2023-04-01T14:50:18;12.60;;;8.60;;
52468;SDS011;38381;53.688;10.776;2023-04-01T15:06:53;9.02;;;6.25;;
52468;SDS011;38381;53.688;10.776;2023-04-01T15:17:55;7.88;;;5.13;;
52468;SDS011;38381;53.688;10.776;2023-04-01T15:23:16;7.13;;;4.80;;
52468;SDS011;38381;53.688;10.776;2023-04-01T15:28:28;7.10;;;5.53;;
52468;SDS011;38381;53.688;10.776;2023-04-01T15:33:43;5.57;;;4.30;;
52468;SDS011;38381;53.688;10.776;2023-04-01T15:49:43;7.25;;;5.03;;
52468;SDS011;38381;53.688;10.776;2023-04-01T16:05:55;4.80;;;4.22;;
52468;SDS011;38381;53.688;10.776;2023-04-01T16:27:42;6.93;;;4.53;;
52468;SDS011;38381;53.688;10.776;2023-04-01T16:32:54;4.95;;;4.00;;
52468;SDS011;38381;53.688;10.776;2023-04-01T16:38:16;4.40;;;4.00;;
52468;SDS011;38381;53.688;10.776;2023-04-01T16:49:00;4.43;;;4.03;;
52468;SDS011;38381;53.688;10.776;2023-04-01T16:59:27;4.80;;;4.28;;
52468;SDS011;38381;53.688;10.776;2023-04-01T17:04:47;5.10;;;4.30;;
52468;SDS011;38381;53.688;10.776;2023-04-01T17:20:55;5.57;;;4.53;;
52468;SDS011;38381;53.688;10.776;2023-04-01T17:26:16;5.45;;;4.25;;
52468;SDS011;38381;53.688;10.776;2023-04-01T17:36:59;4.95;;;4.45;;
52468;SDS011;38381;53.688;10.776;2023-04-01T17:42:10;5.78;;;5.07;;
52468;SDS011;38381;53.688;10.776;2023-04-01T17:47:25;5.03;;;4.55;;
52468;SDS011;38381;53.688;10.776;2023-04-01T17:52:42;6.47;;;5.82;;
52468;SDS011;38381;53.688;10.776;2023-04-01T17:57:51;5.20;;;4.70;;
52468;SDS011;38381;53.688;10.776;2023-04-01T18:03:04;4.75;;;3.92;;
52468;SDS011;38381;53.688;10.776;2023-04-01T18:08:54;5.80;;;4.88;;
52468;SDS011;38381;53.688;10.776;2023-04-01T18:14:13;4.75;;;4.35;;
52468;SDS011;38381;53.688;10.776;2023-04-01T18:19:42;5.07;;;4.20;;
52468;SDS011;38381;53.688;10.776;2023-04-01T18:30:11;4.82;;;3.72;;
52468;SDS011;38381;53.688;10.776;2023-04-01T18:35:17;4.95;;;3.50;;
52468;SDS011;38381;53.688;10.776;2023-04-01T18:40:32;4.55;;;4.15;;
52468;SDS011;38381;53.688;10.776;2023-04-01T18:45:36;4.20;;;3.80;;
52468;SDS011;38381;53.688;10.776;2023-04-01T19:01:12;5.15;;;3.33;;
52468;SDS011;38381;53.688;10.776;2023-04-01T19:06:20;6.93;;;3.83;;
52468;SDS011;38381;53.688;10.776;2023-04-01T19:11:33;3.63;;;3.15;;
52468;SDS011;38381;53.688;10.776;2023-04-01T19:17:01;3.85;;;3.53;;
52468;SDS011;38381;53.688;10.776;2023-04-01T19:27:38;3.53;;;3.10;;
52468;SDS011;38381;53.688;10.776;2023-04-01T19:38:04;4.43;;;3.45;;
52468;SDS011;38381;53.688;10.776;2023-04-01T19:54:16;6.53;;;3.55;;
52468;SDS011;38381;53.688;10.776;2023-04-01T19:59:34;6.47;;;3.50;;
52468;SDS011;38381;53.688;10.776;2023-04-01T20:04:55;4.55;;;3.42;;
52468;SDS011;38381;53.688;10.776;2023-04-01T20:15:42;3.67;;;3.30;;
52468;SDS011;38381;53.688;10.776;2023-04-01T20:20:55;7.80;;;4.00;;
52468;SDS011;38381;53.688;10.776;2023-04-01T20:26:08;4.63;;;4.15;;
52468;SDS011;38381;53.688;10.776;2023-04-01T20:31:31;3.65;;;3.28;;
52468;SDS011;38381;53.688;10.776;2023-04-01T20:47:10;4.57;;;3.17;;
52468;SDS011;38381;53.688;10.776;2023-04-01T20:52:24;4.40;;;3.45;;
52468;SDS011;38381;53.688;10.776;2023-04-01T20:57:35;6.35;;;3.13;;
52468;SDS011;38381;53.688;10.776;2023-04-01T21:02:58;3.95;;;3.47;;
52468;SDS011;38381;53.688;10.776;2023-04-01T22:07:08;4.40;;;4.00;;
52468;SDS011;38381;53.688;10.776;2023-04-01T22:12:15;6.45;;;3.25;;
52468;SDS011;38381;53.688;10.776;2023-04-01T22:27:58;4.20;;;3.47;;
52468;SDS011;38381;53.688;10.776;2023-04-01T22:33:13;4.28;;;2.92;;
52468;SDS011;38381;53.688;10.776;2023-04-01T22:43:42;6.55;;;4.45;;
52468;SDS011;38381;53.688;10.776;2023-04-01T22:54:37;5.13;;;2.88;;
52468;SDS011;38381;53.688;10.776;2023-04-01T23:04:59;5.80;;;2.75;;
52468;SDS011;38381;53.688;10.776;2023-04-01T23:10:02;7.03;;;3.78;;
52468;SDS011;38381;53.688;10.776;2023-04-01T23:15:13;2.83;;;2.55;;
52468;SDS011;38381;53.688;10.776;2023-04-01T23:20:17;2.88;;;2.30;;
52468;SDS011;38381;53.688;10.776;2023-04-01T23:30:47;3.47;;;2.55;;
52468;SDS011;38381;53.688;10.776;2023-04-01T23:35:51;3.95;;;3.35;;
52468;SDS011;38381;53.688;10.776;2023-04-01T23:40:54;4.25;;;2.60;;
52468;SDS011;38381;53.688;10.776;2023-04-01T23:45:55;7.70;;;4.77;;
52468;SDS011;38381;53.688;10.776;2023-04-01T23:50:56;3.38;;;3.08;;
52468;SDS011;38381;53.688;10.776;2023-04-01T23:55:58;3.72;;;3.42;;
